Time;durP1;ratioP1;P1;durP2;ratioP2;P2;SDS_P1;SDS_P2;PMS_P1;PMS_P2;Temp;Humidity;BMP_temperature;BMP_pressure;BME280_temperature;BME280_humidity;BME280_pressure;Samples;Min_cycle;Max_cycle;Signal;HPM_P1;HPM_P2
2024/01/26 00:00:25;;;;;;;23.48;7.40;;;6.00;99.90;;;;;;2093299;28;20509;-73
2024/01/26 00:01:26;;;;;;;25.52;7.40;;;6.00;99.90;;;;;;2102534;28;20038;-73
2024/01/26 00:02:26;;;;;;;25.48;7.63;;;6.00;99.90;;;;;;2103112;28;20024;-72
2024/01/26 00:03:27;;;;;;;23.85;7.60;;;6.00;99.90;;;;;;2099513;28;20033;-72
2024/01/26 00:04:27;;;;;;;26.52;7.53;;;6.00;99.90;;;;;;2096241;28;20453;-72
2024/01/26 00:05:30;;;;;;;23.42;7.60;;;6.00;99.90;;;;;;2101309;28;20044;-72
2024/01/26 00:06:30;;;;;;;24.48;7.43;;;6.00;99.90;;;;;;2093149;28;20157;-72
2024/01/26 00:07:31;;;;;;;21.67;7.28;;;6.00;99.90;;;;;;2097057;28;20132;-72
2024/01/26 00:08:31;;;;;;;21.58;7.55;;;6.00;99.90;;;;;;2097483;28;20471;-72
2024/01/26 00:09:32;;;;;;;24.33;7.80;;;6.00;99.90;;;;;;2098157;28;20146;-72
2024/01/26 00:10:33;;;;;;;24.27;7.47;;;6.00;99.90;;;;;;2097909;28;20051;-73
2024/01/26 00:11:33;;;;;;;23.85;7.30;;;6.00;99.90;;;;;;2101222;28;20016;-73
2024/01/26 00:12:36;;;;;;;22.60;7.07;;;6.00;99.90;;;;;;2103827;28;20024;-73
2024/01/26 00:13:36;;;;;;;24.52;7.95;;;6.00;99.90;;;;;;2093354;28;20017;-72
2024/01/26 00:14:37;;;;;;;25.65;7.78;;;6.00;99.90;;;;;;2104527;28;20629;-72
2024/01/26 00:15:37;;;;;;;25.48;7.68;;;6.00;99.90;;;;;;2104853;28;20035;-72
2024/01/26 00:16:38;;;;;;;24.55;8.20;;;6.00;99.90;;;;;;2092863;28;20032;-72
2024/01/26 00:17:39;;;;;;;25.13;7.68;;;6.00;99.90;;;;;;2093166;28;20035;-72
2024/01/26 00:18:40;;;;;;;20.38;7.35;;;6.00;99.90;;;;;;2105132;28;20028;-71
2024/01/26 00:19:40;;;;;;;22.83;7.13;;;6.00;99.90;;;;;;2108487;28;20028;-72
2024/01/26 00:20:41;;;;;;;31.80;8.07;;;6.10;99.90;;;;;;2101159;28;20119;-72
2024/01/26 00:21:42;;;;;;;23.70;7.78;;;6.10;99.90;;;;;;2093431;28;20393;-73
2024/01/26 00:22:42;;;;;;;25.98;7.80;;;6.10;99.90;;;;;;2100516;28;20032;-73
2024/01/26 00:23:43;;;;;;;21.52;7.57;;;6.00;99.90;;;;;;2100301;28;20027;-71
2024/01/26 00:24:43;;;;;;;23.80;7.50;;;6.00;99.90;;;;;;2092751;28;20494;-72
2024/01/26 00:25:44;;;;;;;26.67;7.38;;;6.00;99.90;;;;;;2097670;28;20031;-72
2024/01/26 00:26:46;;;;;;;27.45;7.72;;;6.00;99.90;;;;;;2096834;28;20025;-72
2024/01/26 00:27:47;;;;;;;23.08;7.57;;;6.00;99.90;;;;;;2092823;28;20045;-72
2024/01/26 00:28:47;;;;;;;26.95;8.20;;;6.00;99.90;;;;;;2092904;28;20278;-72
2024/01/26 00:29:48;;;;;;;21.63;6.75;;;6.00;99.90;;;;;;2100990;28;20032;-71
2024/01/26 00:30:48;;;;;;;24.33;7.80;;;6.00;99.90;;;;;;2099901;28;20400;-70
2024/01/26 00:31:49;;;;;;;25.65;7.38;;;6.00;99.90;;;;;;2090197;28;20036;-73
2024/01/26 00:32:49;;;;;;;23.75;7.95;;;6.00;99.90;;;;;;2097065;28;20031;-71
2024/01/26 00:33:50;;;;;;;24.23;8.00;;;6.00;99.90;;;;;;2101019;28;20024;-72
2024/01/26 00:34:50;;;;;;;29.67;8.00;;;6.00;99.90;;;;;;2094445;28;20032;-71
2024/01/26 00:35:51;;;;;;;27.98;8.00;;;6.00;99.90;;;;;;2098980;28;20543;-72
2024/01/26 00:36:51;;;;;;;24.95;7.60;;;6.00;99.90;;;;;;2101141;28;20024;-71
2024/01/26 00:37:52;;;;;;;23.48;7.60;;;5.90;99.90;;;;;;2094832;28;20040;-72
2024/01/26 00:38:52;;;;;;;20.25;7.40;;;5.90;99.90;;;;;;2100123;28;20032;-73
2024/01/26 00:39:53;;;;;;;27.13;8.32;;;5.90;99.90;;;;;;2102560;28;20639;-72
2024/01/26 00:40:56;;;;;;;30.52;8.05;;;5.90;99.90;;;;;;2101171;28;20430;-73
2024/01/26 00:41:57;;;;;;;23.58;7.40;;;5.90;99.90;;;;;;2094783;28;20179;-74
2024/01/26 00:42:57;;;;;;;24.83;7.78;;;5.80;99.90;;;;;;2098670;28;20102;-73
2024/01/26 00:43:58;;;;;;;24.77;8.05;;;5.80;99.90;;;;;;2100855;28;20108;-74
2024/01/26 00:44:59;;;;;;;25.52;7.65;;;5.80;99.90;;;;;;2094215;28;20071;-75
2024/01/26 00:45:59;;;;;;;24.83;7.55;;;5.80;99.90;;;;;;2095598;28;20124;-74
2024/01/26 00:47:00;;;;;;;25.23;8.07;;;5.80;99.90;;;;;;2100638;28;20106;-74
2024/01/26 00:48:01;;;;;;;23.05;8.25;;;5.80;99.90;;;;;;2095977;28;20029;-74
2024/01/26 00:49:01;;;;;;;27.02;8.25;;;5.80;99.90;;;;;;2103450;28;20032;-74
2024/01/26 00:50:02;;;;;;;28.13;8.13;;;5.80;99.90;;;;;;2105134;28;20542;-74
2024/01/26 00:51:03;;;;;;;25.65;8.40;;;5.80;99.90;;;;;;2098608;28;20066;-73
2024/01/26 00:52:03;;;;;;;22.10;7.78;;;5.80;99.90;;;;;;2099023;28;20047;-74
2024/01/26 00:53:04;;;;;;;24.60;7.88;;;5.80;99.90;;;;;;2102873;28;20038;-74
2024/01/26 00:54:04;;;;;;;21.50;7.53;;;5.80;99.90;;;;;;2097143;28;20075;-75
2024/01/26 00:55:05;;;;;;;21.13;7.65;;;5.80;99.90;;;;;;2096367;28;20465;-74
2024/01/26 00:56:06;;;;;;;26.92;8.02;;;5.80;99.90;;;;;;2099188;28;20413;-73
2024/01/26 00:57:06;;;;;;;25.13;7.60;;;5.70;99.90;;;;;;2104161;28;20494;-75
2024/01/26 00:58:07;;;;;;;21.88;7.80;;;5.70;99.90;;;;;;2104924;28;20527;-75
2024/01/26 00:59:07;;;;;;;27.52;7.68;;;5.70;99.90;;;;;;2095996;28;20699;-75
2024/01/26 01:00:08;;;;;;;22.85;7.50;;;5.70;99.90;;;;;;2099239;28;20483;-75
2024/01/26 01:01:09;;;;;;;25.05;7.97;;;5.70;99.90;;;;;;2094764;28;20040;-75
2024/01/26 01:02:09;;;;;;;24.85;7.50;;;5.70;99.90;;;;;;2083623;28;20025;-74
2024/01/26 01:03:10;;;;;;;27.05;7.45;;;5.70;99.90;;;;;;2083724;28;20068;-74
2024/01/26 01:04:10;;;;;;;26.27;7.97;;;5.70;99.90;;;;;;2097380;28;20028;-75
2024/01/26 01:05:11;;;;;;;26.35;7.90;;;5.70;99.90;;;;;;2102802;28;20028;-75
2024/01/26 01:06:11;;;;;;;24.02;8.02;;;5.70;99.90;;;;;;2103094;28;20104;-75
2024/01/26 01:07:12;;;;;;;26.65;7.88;;;5.70;99.90;;;;;;2097550;28;20066;-74
2024/01/26 01:08:13;;;;;;;24.92;8.02;;;5.70;99.90;;;;;;2102186;28;20628;-74
2024/01/26 01:09:13;;;;;;;31.40;7.95;;;5.70;99.90;;;;;;2102485;28;20035;-76
2024/01/26 01:10:15;;;;;;;32.28;8.27;;;5.60;99.90;;;;;;2095012;28;20032;-73
2024/01/26 01:11:16;;;;;;;28.85;8.23;;;5.60;99.90;;;;;;2100443;28;20043;-75
2024/01/26 01:12:16;;;;;;;25.23;8.20;;;5.50;99.90;;;;;;2093796;28;20028;-75
2024/01/26 01:13:17;;;;;;;24.23;7.82;;;5.40;99.90;;;;;;2093069;28;20073;-74
2024/01/26 01:14:18;;;;;;;27.10;7.80;;;5.40;99.90;;;;;;2100793;28;20033;-74
2024/01/26 01:15:18;;;;;;;30.98;8.57;;;5.30;99.90;;;;;;2102012;28;20041;-75
2024/01/26 01:16:20;;;;;;;27.45;8.13;;;5.30;99.90;;;;;;2100736;28;20028;-74
2024/01/26 01:17:20;;;;;;;26.25;7.95;;;5.20;99.90;;;;;;2098410;28;20031;-76
2024/01/26 01:18:21;;;;;;;23.17;7.90;;;5.20;99.90;;;;;;2094627;28;20401;-74
2024/01/26 01:19:22;;;;;;;24.23;8.50;;;5.10;99.90;;;;;;2093257;28;20067;-74
2024/01/26 01:20:23;;;;;;;29.88;8.30;;;5.10;99.90;;;;;;2099699;28;20041;-75
2024/01/26 01:21:23;;;;;;;23.27;8.18;;;5.10;99.90;;;;;;2098619;28;20050;-75
2024/01/26 01:22:24;;;;;;;27.95;8.75;;;5.00;99.90;;;;;;2097493;28;20036;-75
2024/01/26 01:23:25;;;;;;;22.67;7.75;;;5.00;99.90;;;;;;2096204;28;20043;-74
2024/01/26 01:24:26;;;;;;;30.38;8.05;;;4.90;99.90;;;;;;2092916;28;20029;-75
2024/01/26 01:25:26;;;;;;;29.48;8.32;;;4.90;99.90;;;;;;2092807;28;20625;-74
2024/01/26 01:26:27;;;;;;;27.80;8.43;;;4.90;99.90;;;;;;2100753;28;20031;-76
2024/01/26 01:27:28;;;;;;;23.40;8.13;;;4.90;99.90;;;;;;2104599;28;20063;-74
2024/01/26 01:28:29;;;;;;;28.23;7.82;;;4.80;99.90;;;;;;2096947;28;20801;-74
2024/01/26 01:29:29;;;;;;;22.88;8.43;;;4.70;99.90;;;;;;2100906;28;20052;-74
2024/01/26 01:30:30;;;;;;;29.00;8.70;;;4.70;99.90;;;;;;2096202;28;20021;-73
2024/01/26 01:31:30;;;;;;;28.38;8.82;;;4.70;99.90;;;;;;2093201;28;20077;-74
2024/01/26 01:32:31;;;;;;;25.33;8.07;;;4.70;99.90;;;;;;2100092;28;20025;-74
2024/01/26 01:33:32;;;;;;;30.75;8.70;;;4.70;99.90;;;;;;2103617;28;20031;-75
2024/01/26 01:34:32;;;;;;;32.80;8.35;;;4.70;99.90;;;;;;2100895;28;20047;-74
2024/01/26 01:35:33;;;;;;;23.55;8.27;;;4.60;99.90;;;;;;2096963;28;20402;-74
2024/01/26 01:36:33;;;;;;;31.35;8.68;;;4.50;99.90;;;;;;2104490;28;20039;-73
2024/01/26 01:37:34;;;;;;;31.00;9.10;;;4.50;99.90;;;;;;2100550;28;20039;-73
2024/01/26 01:38:35;;;;;;;30.52;8.85;;;4.50;99.90;;;;;;2100781;28;20031;-73
2024/01/26 01:39:36;;;;;;;30.08;8.82;;;4.40;99.90;;;;;;2092072;28;20029;-73
2024/01/26 01:40:37;;;;;;;29.75;8.68;;;4.40;99.90;;;;;;2099441;28;20079;-73
2024/01/26 01:42:17;;;;;;;31.40;8.70;;;4.40;99.90;;;;;;2086532;28;20645;-73
2024/01/26 01:43:18;;;;;;;25.50;9.00;;;4.40;99.90;;;;;;2066381;28;20042;-76
2024/01/26 01:44:20;;;;;;;25.42;8.10;;;4.40;99.90;;;;;;2075655;28;20036;-74
2024/01/26 01:45:21;;;;;;;26.35;8.27;;;4.30;99.90;;;;;;2077031;28;20053;-73
2024/01/26 01:46:22;;;;;;;27.15;8.60;;;4.30;99.90;;;;;;2075068;28;20636;-74
2024/01/26 01:47:22;;;;;;;28.75;9.38;;;4.20;99.90;;;;;;2071725;28;20726;-73
2024/01/26 01:48:23;;;;;;;28.55;8.65;;;4.20;99.90;;;;;;2076229;28;20466;-74
2024/01/26 01:49:24;;;;;;;26.50;8.57;;;4.20;99.90;;;;;;2091803;28;20111;-74
2024/01/26 01:50:24;;;;;;;24.95;8.70;;;4.20;99.90;;;;;;2098494;28;20038;-73
2024/01/26 01:51:25;;;;;;;29.90;8.60;;;4.20;99.90;;;;;;2095006;28;20429;-75
2024/01/26 01:52:27;;;;;;;28.80;8.85;;;4.10;99.90;;;;;;2104193;28;20016;-75
2024/01/26 01:53:30;;;;;;;29.95;8.98;;;4.10;99.90;;;;;;2100688;28;20058;-75
2024/01/26 01:54:31;;;;;;;32.13;9.07;;;4.10;99.90;;;;;;2098434;28;20035;-73
2024/01/26 01:55:33;;;;;;;31.35;9.10;;;4.10;99.90;;;;;;2093872;28;20025;-74
2024/01/26 01:56:37;;;;;;;30.13;8.82;;;4.10;99.90;;;;;;2092250;28;20032;-73
2024/01/26 01:57:40;;;;;;;29.33;8.50;;;4.10;99.90;;;;;;2092154;28;20719;-75
2024/01/26 01:58:41;;;;;;;26.10;8.55;;;4.00;99.90;;;;;;2100063;28;20024;-74
2024/01/26 01:59:41;;;;;;;28.30;8.88;;;4.00;99.90;;;;;;2092438;28;20055;-73
2024/01/26 02:00:42;;;;;;;28.77;8.85;;;4.10;99.90;;;;;;2092574;28;20029;-74
2024/01/26 02:01:42;;;;;;;27.40;8.85;;;4.00;99.90;;;;;;2101241;28;20054;-74
2024/01/26 02:02:45;;;;;;;28.70;8.60;;;4.10;99.90;;;;;;2099970;28;20046;-73
2024/01/26 02:03:46;;;;;;;31.70;8.85;;;4.10;99.90;;;;;;2092601;28;20025;-73
2024/01/26 02:04:47;;;;;;;29.17;8.70;;;4.10;99.90;;;;;;2100855;28;20378;-73
2024/01/26 02:05:48;;;;;;;31.13;9.75;;;4.10;99.90;;;;;;2092475;28;20036;-75
2024/01/26 02:06:59;;;;;;;27.80;9.10;;;4.00;99.90;;;;;;2097743;28;20056;-73
2024/01/26 02:08:00;;;;;;;26.02;8.48;;;4.00;99.90;;;;;;2093348;28;20035;-73
2024/01/26 02:09:00;;;;;;;35.53;9.60;;;4.00;99.90;;;;;;2097433;28;20025;-74
2024/01/26 02:10:01;;;;;;;27.05;9.55;;;4.00;99.90;;;;;;2094029;28;20020;-73
2024/01/26 02:11:01;;;;;;;33.53;10.63;;;4.00;99.90;;;;;;2094465;28;20031;-74
2024/01/26 02:12:02;;;;;;;31.83;9.93;;;4.00;99.90;;;;;;2093864;28;20054;-74
2024/01/26 02:13:03;;;;;;;37.13;9.80;;;4.00;99.90;;;;;;2099118;28;20048;-73
2024/01/26 02:14:04;;;;;;;30.42;9.18;;;3.90;99.90;;;;;;2095182;28;20029;-74
2024/01/26 02:15:07;;;;;;;32.35;9.45;;;3.90;99.90;;;;;;2093873;28;20028;-74
2024/01/26 02:16:07;;;;;;;30.90;9.30;;;3.90;99.90;;;;;;2101945;28;20035;-74
2024/01/26 02:17:08;;;;;;;32.13;10.57;;;3.90;99.90;;;;;;2093708;28;20016;-74
2024/01/26 02:18:09;;;;;;;39.92;10.98;;;3.80;99.90;;;;;;2101448;28;20110;-74
2024/01/26 02:19:14;;;;;;;37.80;11.25;;;3.80;99.90;;;;;;2105538;28;20058;-74
2024/01/26 02:20:15;;;;;;;40.42;12.05;;;3.80;99.90;;;;;;2095744;28;20093;-74
2024/01/26 02:21:16;;;;;;;41.28;12.13;;;3.70;99.90;;;;;;2100004;28;20429;-74
2024/01/26 02:22:16;;;;;;;40.83;10.98;;;3.70;99.90;;;;;;2093782;28;20017;-74
2024/01/26 02:23:24;;;;;;;40.03;11.48;;;3.70;99.90;;;;;;2097869;28;20032;-74
2024/01/26 02:24:24;;;;;;;40.67;12.07;;;3.70;99.90;;;;;;2101159;28;20085;-74
2024/01/26 02:25:25;;;;;;;43.10;11.60;;;3.60;99.90;;;;;;2097827;28;20151;-75
2024/01/26 02:26:25;;;;;;;41.10;12.88;;;3.60;99.90;;;;;;2099628;28;20029;-74
2024/01/26 02:27:26;;;;;;;37.65;11.73;;;3.60;99.90;;;;;;2096545;28;20028;-74
2024/01/26 02:28:26;;;;;;;45.05;12.00;;;3.60;99.90;;;;;;2093136;28;20029;-75
2024/01/26 02:29:27;;;;;;;41.72;12.15;;;3.50;99.90;;;;;;2093153;28;20069;-75
2024/01/26 02:30:33;;;;;;;35.20;11.15;;;3.50;99.90;;;;;;2093907;28;20482;-74
2024/01/26 02:31:34;;;;;;;44.67;11.75;;;3.50;99.90;;;;;;2089274;28;20039;-73
2024/01/26 02:32:34;;;;;;;40.40;11.70;;;3.50;99.90;;;;;;2095421;28;20044;-75
2024/01/26 02:33:35;;;;;;;38.17;11.00;;;3.50;99.90;;;;;;2093687;28;20395;-73
2024/01/26 02:34:35;;;;;;;36.42;11.60;;;3.50;99.90;;;;;;2093545;28;20402;-74
2024/01/26 02:35:36;;;;;;;34.97;11.40;;;3.50;99.90;;;;;;2093745;28;20042;-73
2024/01/26 02:36:36;;;;;;;32.13;10.80;;;3.60;99.90;;;;;;2102209;28;20028;-75
2024/01/26 02:37:37;;;;;;;33.42;10.50;;;3.50;99.90;;;;;;2100631;28;20031;-73
2024/01/26 02:38:37;;;;;;;32.70;10.80;;;3.50;99.90;;;;;;2095993;28;20024;-73
2024/01/26 02:39:38;;;;;;;32.40;10.95;;;3.50;99.90;;;;;;2106095;28;20097;-74
2024/01/26 02:40:38;;;;;;;34.80;10.98;;;3.50;99.90;;;;;;2094496;28;20024;-73
2024/01/26 02:41:40;;;;;;;35.72;11.48;;;3.40;99.90;;;;;;2102334;28;20020;-73
2024/01/26 02:42:40;;;;;;;32.83;11.27;;;3.40;99.90;;;;;;2102353;28;20127;-74
2024/01/26 02:43:41;;;;;;;37.55;11.20;;;3.40;99.90;;;;;;2101199;28;20031;-72
2024/01/26 02:44:41;;;;;;;36.80;10.82;;;3.40;99.90;;;;;;2104693;28;20503;-73
2024/01/26 02:45:46;;;;;;;30.70;10.73;;;3.40;99.90;;;;;;2106184;28;20016;-73
2024/01/26 02:46:49;;;;;;;28.10;10.43;;;3.40;99.90;;;;;;2107500;28;20501;-74
2024/01/26 02:47:49;;;;;;;33.10;10.95;;;3.30;99.90;;;;;;2101838;28;20078;-74
2024/01/26 02:48:50;;;;;;;30.52;10.27;;;3.30;99.90;;;;;;2093647;28;20486;-74
2024/01/26 02:49:50;;;;;;;30.65;11.02;;;3.30;99.90;;;;;;2093639;28;20029;-72
2024/01/26 02:50:51;;;;;;;33.10;11.70;;;3.30;99.90;;;;;;2093564;28;20115;-74
2024/01/26 02:51:51;;;;;;;30.92;10.80;;;3.30;99.90;;;;;;2094447;28;20036;-74
2024/01/26 02:52:52;;;;;;;27.92;9.93;;;3.30;99.90;;;;;;2100947;28;20029;-75
2024/01/26 02:53:52;;;;;;;28.02;10.18;;;3.30;99.90;;;;;;2093596;28;20029;-75
2024/01/26 02:54:53;;;;;;;33.88;10.05;;;3.30;99.90;;;;;;2094817;28;20036;-73
2024/01/26 02:55:53;;;;;;;29.88;10.02;;;3.30;99.90;;;;;;2100413;28;20029;-74
2024/01/26 02:56:56;;;;;;;34.17;11.02;;;3.30;99.90;;;;;;2101240;28;20054;-74
2024/01/26 02:57:57;;;;;;;35.13;10.80;;;3.40;99.90;;;;;;2095445;28;20052;-74
2024/01/26 02:58:57;;;;;;;27.80;10.05;;;3.40;99.90;;;;;;2103349;28;20028;-74
2024/01/26 02:59:58;;;;;;;28.00;9.63;;;3.40;99.90;;;;;;2101688;28;20054;-74
2024/01/26 03:00:58;;;;;;;29.55;10.52;;;3.30;99.90;;;;;;2096223;28;20390;-74
2024/01/26 03:01:59;;;;;;;29.63;10.27;;;3.30;99.90;;;;;;2098936;28;20438;-74
2024/01/26 03:02:59;;;;;;;30.02;9.98;;;3.30;99.90;;;;;;2101644;28;20027;-74
2024/01/26 03:04:00;;;;;;;31.50;9.65;;;3.40;99.90;;;;;;2098811;28;20021;-74
2024/01/26 03:05:00;;;;;;;29.55;10.52;;;3.40;99.90;;;;;;2100539;28;20060;-74
2024/01/26 03:06:01;;;;;;;27.90;9.88;;;3.40;99.90;;;;;;2106459;28;20492;-77
2024/01/26 03:07:02;;;;;;;32.65;9.82;;;3.40;99.90;;;;;;2105799;28;20020;-74
2024/01/26 03:08:03;;;;;;;31.45;9.98;;;3.40;99.90;;;;;;2095486;28;20067;-74
2024/01/26 03:09:04;;;;;;;29.40;10.15;;;3.40;99.90;;;;;;2099760;28;20036;-74
2024/01/26 03:10:05;;;;;;;28.02;10.10;;;3.40;99.90;;;;;;2098856;28;20032;-74
2024/01/26 03:11:06;;;;;;;30.15;10.63;;;3.30;99.90;;;;;;2100918;28;20466;-74
2024/01/26 03:12:07;;;;;;;33.00;10.88;;;3.30;99.90;;;;;;2096571;28;20054;-74
2024/01/26 03:13:07;;;;;;;30.35;10.80;;;3.30;99.90;;;;;;2097950;28;20098;-73
2024/01/26 03:14:08;;;;;;;30.80;10.50;;;3.30;99.90;;;;;;2103492;28;20035;-73
2024/01/26 03:15:09;;;;;;;25.38;9.65;;;3.20;99.90;;;;;;2099597;28;20028;-73
2024/01/26 03:16:10;;;;;;;32.85;10.90;;;3.20;99.90;;;;;;2093450;28;20036;-74
2024/01/26 03:17:11;;;;;;;31.77;10.07;;;3.20;99.90;;;;;;2097304;28;20031;-74
2024/01/26 03:18:11;;;;;;;28.35;10.35;;;3.20;99.90;;;;;;2098651;28;20113;-73
2024/01/26 03:19:12;;;;;;;27.13;10.15;;;3.30;99.90;;;;;;2101090;28;20534;-73
2024/01/26 03:20:13;;;;;;;29.23;10.18;;;3.20;99.90;;;;;;2092870;28;20032;-74
2024/01/26 03:21:14;;;;;;;31.73;10.18;;;3.20;99.90;;;;;;2097457;28;20093;-75
2024/01/26 03:22:14;;;;;;;30.95;10.98;;;3.20;99.90;;;;;;2095148;28;20078;-74
2024/01/26 03:23:15;;;;;;;31.42;10.02;;;3.20;99.90;;;;;;2100947;28;20069;-73
2024/01/26 03:24:15;;;;;;;37.72;11.05;;;3.30;99.90;;;;;;2099273;28;20347;-73
2024/01/26 03:25:16;;;;;;;28.92;10.40;;;3.30;99.90;;;;;;2101488;28;20575;-73
2024/01/26 03:26:16;;;;;;;34.30;10.55;;;3.20;99.90;;;;;;2096726;28;20386;-75
2024/01/26 03:27:17;;;;;;;31.85;10.43;;;3.20;99.90;;;;;;2093351;28;20020;-74
2024/01/26 03:28:17;;;;;;;31.75;10.52;;;3.10;99.90;;;;;;2093308;28;20636;-73
2024/01/26 03:29:18;;;;;;;35.55;11.10;;;3.20;99.90;;;;;;2093313;28;20135;-74
2024/01/26 03:30:18;;;;;;;31.17;10.70;;;3.10;99.90;;;;;;2094470;28;20744;-74
2024/01/26 03:31:19;;;;;;;30.00;10.52;;;3.20;99.90;;;;;;2101064;28;20077;-74
2024/01/26 03:32:19;;;;;;;30.38;10.18;;;3.20;99.90;;;;;;2091000;28;20027;-73
2024/01/26 03:33:20;;;;;;;28.17;10.82;;;3.20;99.90;;;;;;2094922;28;20024;-74
2024/01/26 03:34:21;;;;;;;31.85;10.82;;;3.20;99.90;;;;;;2100964;28;20463;-74
2024/01/26 03:35:21;;;;;;;32.70;10.75;;;3.20;99.90;;;;;;2099513;28;20546;-73
2024/01/26 03:36:22;;;;;;;34.08;11.00;;;3.20;99.90;;;;;;2094438;28;20345;-75
2024/01/26 03:37:22;;;;;;;37.08;10.65;;;3.20;99.90;;;;;;2100840;28;20036;-75
2024/01/26 03:38:23;;;;;;;32.75;10.93;;;3.20;99.90;;;;;;2099671;28;20027;-73
2024/01/26 03:39:23;;;;;;;35.72;11.10;;;3.30;99.90;;;;;;2094214;28;20103;-73
2024/01/26 03:40:24;;;;;;;34.13;11.35;;;3.30;99.90;;;;;;2101363;28;20028;-73
2024/01/26 03:41:25;;;;;;;28.30;11.00;;;3.30;99.90;;;;;;2100632;28;20027;-73
2024/01/26 03:42:25;;;;;;;31.42;11.25;;;3.20;99.90;;;;;;2101810;28;20323;-73
2024/01/26 03:43:26;;;;;;;34.88;12.10;;;3.20;99.90;;;;;;2093558;28;20032;-73
2024/01/26 03:44:26;;;;;;;28.95;11.05;;;3.20;99.90;;;;;;2104576;28;20032;-74
2024/01/26 03:45:27;;;;;;;30.95;10.88;;;3.30;99.90;;;;;;2100394;28;20016;-73
2024/01/26 03:46:27;;;;;;;31.50;10.98;;;3.30;99.90;;;;;;2094843;28;20024;-73
2024/01/26 03:47:28;;;;;;;30.45;10.73;;;3.30;99.90;;;;;;2101215;28;20652;-73
2024/01/26 03:48:28;;;;;;;33.10;10.23;;;3.40;99.90;;;;;;2092386;28;20067;-74
2024/01/26 03:49:29;;;;;;;31.45;10.65;;;3.40;99.90;;;;;;2092539;28;20036;-73
2024/01/26 03:50:30;;;;;;;31.95;10.63;;;3.40;99.90;;;;;;2092946;28;20020;-73
2024/01/26 03:51:30;;;;;;;33.95;11.00;;;3.40;99.90;;;;;;2100649;28;20031;-74
2024/01/26 03:52:31;;;;;;;30.95;10.25;;;3.40;99.90;;;;;;2093769;28;20025;-73
2024/01/26 03:53:32;;;;;;;31.23;10.55;;;3.40;99.90;;;;;;2101171;28;20401;-73
2024/01/26 03:54:32;;;;;;;30.98;10.20;;;3.40;99.90;;;;;;2101131;28;20023;-73
2024/01/26 03:55:33;;;;;;;31.23;10.15;;;3.40;99.90;;;;;;2093142;28;20028;-73
2024/01/26 03:56:33;;;;;;;32.00;10.95;;;3.40;99.90;;;;;;2101134;28;20020;-73
2024/01/26 03:57:35;;;;;;;35.40;11.48;;;3.40;99.90;;;;;;2100996;28;20024;-73
2024/01/26 03:58:35;;;;;;;38.85;11.68;;;3.50;99.90;;;;;;2093630;28;20146;-73
2024/01/26 03:59:36;;;;;;;36.70;11.95;;;3.50;99.90;;;;;;2103939;28;20615;-73
2024/01/26 04:00:37;;;;;;;38.58;13.05;;;3.50;99.90;;;;;;2105301;28;20516;-73
2024/01/26 04:01:37;;;;;;;40.63;12.45;;;3.50;99.90;;;;;;2107188;28;20030;-72
2024/01/26 04:02:38;;;;;;;42.47;12.50;;;3.60;99.90;;;;;;2103634;28;20161;-73
2024/01/26 04:03:39;;;;;;;36.03;11.50;;;3.60;99.90;;;;;;2093098;28;20039;-74
2024/01/26 04:04:40;;;;;;;38.35;11.98;;;3.50;99.90;;;;;;2100716;28;20039;-73
2024/01/26 04:05:40;;;;;;;34.60;11.52;;;3.50;99.90;;;;;;2101232;28;20739;-72
2024/01/26 04:06:41;;;;;;;46.33;13.75;;;3.50;99.90;;;;;;2092379;28;20032;-74
2024/01/26 04:07:41;;;;;;;49.47;14.10;;;3.50;99.90;;;;;;2099764;28;20027;-75
2024/01/26 04:08:42;;;;;;;34.33;11.90;;;3.50;99.90;;;;;;2100908;28;20023;-73
2024/01/26 04:09:43;;;;;;;35.60;11.57;;;3.50;99.90;;;;;;2092963;28;20028;-73
2024/01/26 04:10:43;;;;;;;32.65;10.50;;;3.50;99.90;;;;;;2098188;28;20024;-73
2024/01/26 04:11:44;;;;;;;30.38;9.70;;;3.50;99.90;;;;;;2104194;28;20077;-74
2024/01/26 04:12:44;;;;;;;30.35;9.27;;;3.50;99.90;;;;;;2094569;28;20060;-73
2024/01/26 04:13:45;;;;;;;32.42;10.63;;;3.50;99.90;;;;;;2099421;28;20035;-74
2024/01/26 04:14:45;;;;;;;32.05;9.80;;;3.40;99.90;;;;;;2101994;28;20031;-75
2024/01/26 04:15:46;;;;;;;38.97;11.68;;;3.50;99.90;;;;;;2097879;28;20021;-74
2024/01/26 04:16:47;;;;;;;38.50;10.93;;;3.40;99.90;;;;;;2098698;28;20025;-75
2024/01/26 04:17:48;;;;;;;35.22;11.38;;;3.50;99.90;;;;;;2092916;28;20044;-73
2024/01/26 04:18:48;;;;;;;27.45;9.13;;;3.50;99.90;;;;;;2092930;28;20041;-75
2024/01/26 04:19:49;;;;;;;31.77;9.77;;;3.50;99.90;;;;;;2095433;28;20033;-73
2024/01/26 04:20:49;;;;;;;27.13;9.68;;;3.50;99.90;;;;;;2100917;28;20107;-74
2024/01/26 04:21:51;;;;;;;32.25;10.00;;;3.60;99.90;;;;;;2099627;28;20032;-75
2024/01/26 04:22:52;;;;;;;30.23;9.90;;;3.60;99.90;;;;;;2100553;28;20658;-75
2024/01/26 04:23:52;;;;;;;30.40;10.38;;;3.60;99.90;;;;;;2095214;28;20032;-74
2024/01/26 04:24:53;;;;;;;32.53;10.57;;;3.50;99.90;;;;;;2098549;28;20029;-73
2024/01/26 04:25:53;;;;;;;31.02;10.32;;;3.50;99.90;;;;;;2100899;28;20020;-74
2024/01/26 04:26:54;;;;;;;33.70;10.82;;;3.60;99.90;;;;;;2093838;28;20040;-73
2024/01/26 04:27:54;;;;;;;32.58;10.40;;;3.50;99.90;;;;;;2095550;28;20028;-74
2024/01/26 04:28:55;;;;;;;32.92;10.60;;;3.50;99.90;;;;;;2102298;28;20028;-74
2024/01/26 04:29:56;;;;;;;38.60;10.70;;;3.60;99.90;;;;;;2098114;28;20042;-74
2024/01/26 04:30:56;;;;;;;33.35;11.73;;;3.60;99.90;;;;;;2099385;28;20074;-73
2024/01/26 04:31:57;;;;;;;34.63;11.68;;;3.60;99.90;;;;;;2096292;28;20038;-74
2024/01/26 04:32:57;;;;;;;35.25;11.38;;;3.70;99.90;;;;;;2097106;28;20303;-75
2024/01/26 04:33:58;;;;;;;35.45;11.40;;;3.70;99.90;;;;;;2105032;28;20082;-73
2024/01/26 04:34:58;;;;;;;36.30;11.27;;;3.70;99.90;;;;;;2102698;28;20047;-75
2024/01/26 04:35:59;;;;;;;38.38;10.68;;;3.70;99.90;;;;;;2097634;28;20028;-74
2024/01/26 04:37:00;;;;;;;37.20;11.45;;;3.70;99.90;;;;;;2096692;28;20531;-73
2024/01/26 04:38:01;;;;;;;34.50;10.80;;;3.70;99.90;;;;;;2101116;28;20134;-74
2024/01/26 04:39:02;;;;;;;29.63;10.65;;;3.70;99.90;;;;;;2103891;28;20092;-74
2024/01/26 04:40:03;;;;;;;32.53;10.45;;;3.70;99.90;;;;;;2103009;28;20043;-73
2024/01/26 04:41:04;;;;;;;32.97;10.77;;;3.70;99.90;;;;;;2096621;28;20371;-73
2024/01/26 04:42:04;;;;;;;32.25;10.63;;;3.70;99.90;;;;;;2096711;28;20113;-74
2024/01/26 04:43:05;;;;;;;33.40;10.80;;;3.70;99.90;;;;;;2100356;28;20031;-73
2024/01/26 04:44:06;;;;;;;24.33;9.82;;;3.70;99.90;;;;;;2092206;28;20547;-73
2024/01/26 04:45:07;;;;;;;32.28;10.18;;;3.70;99.90;;;;;;2093436;28;20032;-73
2024/01/26 04:46:07;;;;;;;34.05;11.07;;;3.70;99.90;;;;;;2099703;28;20032;-73
2024/01/26 04:47:08;;;;;;;32.13;10.73;;;3.70;99.90;;;;;;2098026;28;20059;-74
2024/01/26 04:48:08;;;;;;;33.78;11.45;;;3.70;99.90;;;;;;2096706;28;20120;-73
2024/01/26 04:49:09;;;;;;;33.60;10.60;;;3.70;99.90;;;;;;2105354;28;20039;-73
2024/01/26 04:50:10;;;;;;;43.75;12.30;;;3.70;99.90;;;;;;2106277;28;20019;-73
2024/01/26 04:51:11;;;;;;;36.45;11.95;;;3.70;99.90;;;;;;2097295;28;20081;-74
2024/01/26 04:52:11;;;;;;;34.05;11.68;;;3.70;99.90;;;;;;2099208;28;20025;-73
2024/01/26 04:53:12;;;;;;;37.70;11.98;;;3.70;99.90;;;;;;2097080;28;20024;-74
2024/01/26 04:54:13;;;;;;;32.03;11.07;;;3.80;99.90;;;;;;2101734;28;20028;-74
2024/01/26 04:55:13;;;;;;;34.50;11.57;;;3.80;99.90;;;;;;2095039;28;20042;-73
2024/01/26 04:56:14;;;;;;;34.65;11.25;;;3.80;99.90;;;;;;2091505;28;20478;-73
2024/01/26 04:57:14;;;;;;;33.92;11.70;;;3.80;99.90;;;;;;2101517;28;20020;-73
2024/01/26 04:58:15;;;;;;;34.70;11.32;;;3.80;99.90;;;;;;2099005;28;20025;-73
2024/01/26 04:59:15;;;;;;;40.72;12.77;;;3.80;99.90;;;;;;2094125;28;20427;-73
2024/01/26 05:00:18;;;;;;;37.60;12.52;;;3.80;99.90;;;;;;2100170;28;20036;-73
2024/01/26 05:01:18;;;;;;;35.03;11.60;;;3.80;99.90;;;;;;2092222;28;20437;-73
2024/01/26 05:02:19;;;;;;;35.13;11.23;;;3.80;99.90;;;;;;2100466;28;20024;-73
2024/01/26 05:03:19;;;;;;;33.50;11.75;;;3.80;99.90;;;;;;2100556;28;20020;-74
2024/01/26 05:04:20;;;;;;;36.67;11.30;;;3.80;99.90;;;;;;2097439;28;20024;-73
2024/01/26 05:05:20;;;;;;;28.23;10.98;;;3.90;99.90;;;;;;2093171;28;20020;-74
2024/01/26 05:06:21;;;;;;;34.03;11.38;;;3.90;99.90;;;;;;2100117;28;20101;-74
2024/01/26 05:07:22;;;;;;;31.30;10.80;;;3.90;99.90;;;;;;2103623;28;20015;-74
2024/01/26 05:08:23;;;;;;;29.63;11.18;;;3.90;99.90;;;;;;2083901;28;20099;-73
2024/01/26 05:09:23;;;;;;;32.97;12.00;;;3.80;99.90;;;;;;2099830;28;20133;-74
2024/01/26 05:10:24;;;;;;;31.77;10.40;;;3.90;99.90;;;;;;2100544;28;20031;-74
2024/01/26 05:11:24;;;;;;;29.73;11.25;;;3.90;99.90;;;;;;2092928;28;20032;-73
2024/01/26 05:12:25;;;;;;;35.10;11.55;;;3.90;99.90;;;;;;2104670;28;20041;-74
2024/01/26 05:13:25;;;;;;;29.67;10.60;;;3.90;99.90;;;;;;2100785;28;20049;-74
2024/01/26 05:14:26;;;;;;;28.65;10.07;;;3.90;99.90;;;;;;2093822;28;20038;-74